Terminal Aerodrome Forecast
Issued by NWS

Home | Current Version | Previous Version | Graphics & Text | Print | Product List | Glossary On
Versions: 1 2 3 4 5 6 7 8 9 10 11 12 13 14 15 16 17 18 19
599
FTUS41 KCLE 281444 AAA
TAFFDY
TAF AMD
KFDY 281444Z 2815/2912 05010KT 5SM -SHRA BKN009 OVC015
      TEMPO 2815/2819 3SM -SHRA OVC009
     FM281900 06012KT P6SM OVC015
     FM290200 03006KT 5SM BR VCSH OVC009
     FM290500 05006KT 2SM BR OVC005=

USA.gov is the U.S. government's official web portal to all federal, state and local government web resources and services.